NCAR-RAP Real-Time Weather Data

Output produced by METARs form (08 May 2021  01:30 UTC)
found at http://weather.rap.ucar.edu/surface/
 
KOTM 080053Z AUTO 02006KT 10SM CLR 14/M05 A3001 RMK AO2 SLP162 T01441050
KOTM 072353Z AUTO 35012KT 10SM CLR 17/M04 A3001 RMK AO2 SLP161 T01721039 10189 20172 56010
KOTM 072253Z AUTO 34011KT 10SM CLR 18/M03 A3002 RMK AO2 SLP165 T01831028
KOTM 072153Z AUTO 31012KT 10SM CLR 18/M03 A3002 RMK AO2 SLP167 T01831033
KOTM 072053Z AUTO 33013G22KT 10SM CLR 19/M02 A3004 RMK AO2 SLP171 T01891017 56013
KOTM 071953Z AUTO 32014G23KT 10SM CLR 18/M01 A3005 RMK AO2 PK WND 32027/1859 SLP175 T01831006
KOTM 071853Z AUTO 33014G24KT 10SM CLR 18/M01 A3006 RMK AO2 SLP180 T01781006
KOTM 071753Z AUTO 31016G28KT 10SM CLR 17/01 A3008 RMK AO2 PK WND 29028/1749 SLP185 T01720011 10178 20089 50002
KOTM 071653Z AUTO 33021G28KT 10SM CLR 17/04 A3009 RMK AO2 PK WND 33028/1652 SLP191 T01670039
KOTM 071553Z AUTO 33015KT 10SM CLR 16/03 A3008 RMK AO2 SLP187 T01610033
KOTM 071453Z AUTO 31016G23KT 10SM CLR 16/04 A3007 RMK AO2 SLP183 T01560039 51012
KOTM 071353Z AUTO 30014KT 10SM CLR 13/03 A3006 RMK AO2 SLP180 T01330033
KOTM 071253Z AUTO 28008KT 10SM FEW110 11/04 A3006 RMK AO2 SLP180 T01060039
KOTM 071153Z AUTO 25009KT 10SM FEW110 09/03 A3003 RMK AO2 SLP171 T00890028 10089 20044 55005
KOTM 071053Z AUTO 23007KT 10SM CLR 06/02 A3003 RMK AO2 SLP170 T00610017